Fairview, Louisiana
Current Conditions -  °F | °C
As of 5:55 PM on Monday 20 Oct 2014 (Local Time) from KHEZ Reporting Station
Clear Clear  
Wind Chill: 72°   Ceiling: Unl
Heat Index: 72°   Visibility: 10mi
Dew Point: 54°   Wind: 0mph
Humidity: 53%   Direction: NA
Pressure: 30.03"   Gusts: NA
Location:  31.5712°N, 91.5148°W
Report Text: KHEZ 202255Z AUTO 00000KT 10SM CLR 22/12 A3003 RMK AO1
Loading
Personal Weather Stations






























Interactive Weather Map
Tropical Storm Tracking
New forecast layout! Learn more

10-Day Weather Forecast

Advertisements
Track Severe Weather on mobile